sensor_id;sensor_type;location;lat;lon;timestamp;P1;durP1;ratioP1;P2;durP2;ratioP2
55015;SDS011;40919;43.236;21.590;2023-02-28T00:00:38;88.78;;;46.53;;
55015;SDS011;40919;43.236;21.590;2023-02-28T00:03:04;91.50;;;46.97;;
55015;SDS011;40919;43.236;21.590;2023-02-28T00:05:30;76.35;;;43.47;;
55015;SDS011;40919;43.236;21.590;2023-02-28T00:07:56;70.45;;;39.67;;
55015;SDS011;40919;43.236;21.590;2023-02-28T00:10:24;72.68;;;38.55;;
55015;SDS011;40919;43.236;21.590;2023-02-28T00:12:52;68.15;;;36.95;;
55015;SDS011;40919;43.236;21.590;2023-02-28T00:15:21;70.80;;;39.83;;
55015;SDS011;40919;43.236;21.590;2023-02-28T00:17:48;68.18;;;37.65;;
55015;SDS011;40919;43.236;21.590;2023-02-28T00:20:14;66.60;;;35.65;;
55015;SDS011;40919;43.236;21.590;2023-02-28T00:22:42;67.50;;;34.85;;
55015;SDS011;40919;43.236;21.590;2023-02-28T00:25:10;72.35;;;39.40;;
55015;SDS011;40919;43.236;21.590;2023-02-28T00:27:37;67.47;;;36.10;;
55015;SDS011;40919;43.236;21.590;2023-02-28T00:30:04;74.05;;;37.58;;
55015;SDS011;40919;43.236;21.590;2023-02-28T00:32:31;68.32;;;35.83;;
55015;SDS011;40919;43.236;21.590;2023-02-28T00:34:57;65.25;;;34.88;;
55015;SDS011;40919;43.236;21.590;2023-02-28T00:37:23;68.82;;;39.13;;
55015;SDS011;40919;43.236;21.590;2023-02-28T00:39:48;71.22;;;41.90;;
55015;SDS011;40919;43.236;21.590;2023-02-28T00:42:14;62.15;;;34.70;;
55015;SDS011;40919;43.236;21.590;2023-02-28T00:44:40;64.22;;;34.97;;
55015;SDS011;40919;43.236;21.590;2023-02-28T00:47:06;62.15;;;33.75;;
55015;SDS011;40919;43.236;21.590;2023-02-28T00:49:32;62.03;;;34.10;;
55015;SDS011;40919;43.236;21.590;2023-02-28T00:51:58;69.90;;;35.75;;
55015;SDS011;40919;43.236;21.590;2023-02-28T00:54:23;65.97;;;35.40;;
55015;SDS011;40919;43.236;21.590;2023-02-28T00:56:49;64.30;;;36.00;;
55015;SDS011;40919;43.236;21.590;2023-02-28T00:59:16;66.38;;;37.05;;
55015;SDS011;40919;43.236;21.590;2023-02-28T01:01:43;66.32;;;37.28;;
55015;SDS011;40919;43.236;21.590;2023-02-28T01:04:10;71.78;;;38.45;;
55015;SDS011;40919;43.236;21.590;2023-02-28T01:06:36;73.93;;;37.58;;
55015;SDS011;40919;43.236;21.590;2023-02-28T01:09:03;69.47;;;34.17;;
55015;SDS011;40919;43.236;21.590;2023-02-28T01:11:30;67.35;;;36.33;;
55015;SDS011;40919;43.236;21.590;2023-02-28T01:13:57;74.32;;;38.95;;
55015;SDS011;40919;43.236;21.590;2023-02-28T01:16:23;82.43;;;40.20;;
55015;SDS011;40919;43.236;21.590;2023-02-28T01:18:49;83.32;;;44.03;;
55015;SDS011;40919;43.236;21.590;2023-02-28T01:21:15;73.18;;;36.55;;
55015;SDS011;40919;43.236;21.590;2023-02-28T01:23:43;68.03;;;36.95;;
55015;SDS011;40919;43.236;21.590;2023-02-28T01:26:13;72.28;;;38.75;;
55015;SDS011;40919;43.236;21.590;2023-02-28T01:28:41;66.30;;;36.20;;
55015;SDS011;40919;43.236;21.590;2023-02-28T01:31:08;76.60;;;36.80;;
55015;SDS011;40919;43.236;21.590;2023-02-28T01:33:34;67.38;;;35.72;;
55015;SDS011;40919;43.236;21.590;2023-02-28T01:36:09;82.05;;;38.80;;
55015;SDS011;40919;43.236;21.590;2023-02-28T01:38:39;75.25;;;39.05;;
55015;SDS011;40919;43.236;21.590;2023-02-28T01:41:05;96.18;;;48.97;;
55015;SDS011;40919;43.236;21.590;2023-02-28T01:43:35;77.95;;;40.63;;
55015;SDS011;40919;43.236;21.590;2023-02-28T01:46:22;95.82;;;47.25;;
55015;SDS011;40919;43.236;21.590;2023-02-28T01:51:29;91.55;;;41.70;;
55015;SDS011;40919;43.236;21.590;2023-02-28T01:54:12;79.53;;;40.58;;
55015;SDS011;40919;43.236;21.590;2023-02-28T01:56:46;73.68;;;38.60;;
55015;SDS011;40919;43.236;21.590;2023-02-28T01:59:19;93.60;;;46.83;;
55015;SDS011;40919;43.236;21.590;2023-02-28T02:01:50;78.10;;;39.05;;
55015;SDS011;40919;43.236;21.590;2023-02-28T02:04:16;80.03;;;40.83;;
55015;SDS011;40919;43.236;21.590;2023-02-28T02:06:45;75.65;;;38.15;;
55015;SDS011;40919;43.236;21.590;2023-02-28T02:09:12;78.80;;;38.92;;
55015;SDS011;40919;43.236;21.590;2023-02-28T02:11:39;81.80;;;40.17;;
55015;SDS011;40919;43.236;21.590;2023-02-28T02:16:55;91.93;;;47.92;;
55015;SDS011;40919;43.236;21.590;2023-02-28T02:25:21;80.13;;;40.65;;
55015;SDS011;40919;43.236;21.590;2023-02-28T02:36:51;79.57;;;38.25;;
55015;SDS011;40919;43.236;21.590;2023-02-28T02:39:32;89.50;;;40.47;;
55015;SDS011;40919;43.236;21.590;2023-02-28T02:42:15;70.82;;;37.78;;
55015;SDS011;40919;43.236;21.590;2023-02-28T02:44:52;82.70;;;41.08;;
55015;SDS011;40919;43.236;21.590;2023-02-28T02:47:25;85.45;;;42.63;;
55015;SDS011;40919;43.236;21.590;2023-02-28T02:49:55;82.28;;;42.92;;
55015;SDS011;40919;43.236;21.590;2023-02-28T02:52:25;67.80;;;36.80;;
55015;SDS011;40919;43.236;21.590;2023-02-28T02:55:00;77.53;;;38.28;;
55015;SDS011;40919;43.236;21.590;2023-02-28T02:58:02;77.05;;;40.25;;
55015;SDS011;40919;43.236;21.590;2023-02-28T03:00:26;67.50;;;34.13;;
55015;SDS011;40919;43.236;21.590;2023-02-28T03:02:58;73.47;;;37.78;;
55015;SDS011;40919;43.236;21.590;2023-02-28T03:05:26;73.38;;;35.65;;
55015;SDS011;40919;43.236;21.590;2023-02-28T03:08:03;69.28;;;34.65;;
55015;SDS011;40919;43.236;21.590;2023-02-28T03:13:14;71.00;;;36.57;;
55015;SDS011;40919;43.236;21.590;2023-02-28T03:23:52;72.25;;;35.58;;
55015;SDS011;40919;43.236;21.590;2023-02-28T03:26:42;75.55;;;36.33;;
55015;SDS011;40919;43.236;21.590;2023-02-28T03:29:20;75.63;;;36.15;;
55015;SDS011;40919;43.236;21.590;2023-02-28T03:31:54;66.25;;;34.05;;
55015;SDS011;40919;43.236;21.590;2023-02-28T03:34:29;66.65;;;34.63;;
55015;SDS011;40919;43.236;21.590;2023-02-28T03:37:01;73.75;;;34.75;;
55015;SDS011;40919;43.236;21.590;2023-02-28T03:39:45;71.82;;;33.83;;
55015;SDS011;40919;43.236;21.590;2023-02-28T03:42:20;65.85;;;35.33;;
55015;SDS011;40919;43.236;21.590;2023-02-28T03:44:53;73.90;;;35.65;;
55015;SDS011;40919;43.236;21.590;2023-02-28T03:47:27;70.35;;;37.63;;
55015;SDS011;40919;43.236;21.590;2023-02-28T03:50:27;69.45;;;34.53;;
55015;SDS011;40919;43.236;21.590;2023-02-28T03:53:04;67.13;;;35.77;;
55015;SDS011;40919;43.236;21.590;2023-02-28T03:55:37;63.10;;;35.13;;
55015;SDS011;40919;43.236;21.590;2023-02-28T03:58:17;68.47;;;35.50;;
55015;SDS011;40919;43.236;21.590;2023-02-28T04:00:47;67.40;;;34.00;;
55015;SDS011;40919;43.236;21.590;2023-02-28T04:03:18;69.40;;;36.47;;
55015;SDS011;40919;43.236;21.590;2023-02-28T04:05:51;74.75;;;37.63;;
55015;SDS011;40919;43.236;21.590;2023-02-28T04:08:19;64.80;;;36.22;;
55015;SDS011;40919;43.236;21.590;2023-02-28T04:10:45;65.05;;;36.00;;
55015;SDS011;40919;43.236;21.590;2023-02-28T04:13:22;72.65;;;34.63;;
55015;SDS011;40919;43.236;21.590;2023-02-28T04:15:48;74.63;;;37.38;;
55015;SDS011;40919;43.236;21.590;2023-02-28T04:18:14;73.97;;;36.63;;
55015;SDS011;40919;43.236;21.590;2023-02-28T04:20:40;69.85;;;36.60;;
55015;SDS011;40919;43.236;21.590;2023-02-28T04:23:05;70.22;;;37.25;;
55015;SDS011;40919;43.236;21.590;2023-02-28T04:25:31;69.38;;;36.80;;
55015;SDS011;40919;43.236;21.590;2023-02-28T04:27:57;88.53;;;46.35;;
55015;SDS011;40919;43.236;21.590;2023-02-28T04:30:22;83.53;;;46.53;;
55015;SDS011;40919;43.236;21.590;2023-02-28T04:32:48;83.90;;;46.10;;
55015;SDS011;40919;43.236;21.590;2023-02-28T04:35:14;70.50;;;37.38;;
55015;SDS011;40919;43.236;21.590;2023-02-28T04:37:40;61.17;;;34.05;;
55015;SDS011;40919;43.236;21.590;2023-02-28T04:40:06;73.88;;;36.40;;
55015;SDS011;40919;43.236;21.590;2023-02-28T04:42:32;72.30;;;37.47;;
55015;SDS011;40919;43.236;21.590;2023-02-28T04:45:03;69.97;;;37.00;;
55015;SDS011;40919;43.236;21.590;2023-02-28T04:47:29;72.97;;;39.75;;
55015;SDS011;40919;43.236;21.590;2023-02-28T04:49:55;73.35;;;43.38;;
55015;SDS011;40919;43.236;21.590;2023-02-28T04:52:21;75.55;;;48.08;;
55015;SDS011;40919;43.236;21.590;2023-02-28T04:54:47;72.20;;;36.47;;
55015;SDS011;40919;43.236;21.590;2023-02-28T04:57:13;75.72;;;38.42;;
55015;SDS011;40919;43.236;21.590;2023-02-28T04:59:39;80.95;;;42.50;;
55015;SDS011;40919;43.236;21.590;2023-02-28T05:02:04;74.65;;;40.67;;
55015;SDS011;40919;43.236;21.590;2023-02-28T05:04:32;72.20;;;37.20;;
55015;SDS011;40919;43.236;21.590;2023-02-28T05:06:59;72.32;;;38.58;;
55015;SDS011;40919;43.236;21.590;2023-02-28T05:09:26;79.10;;;39.35;;
55015;SDS011;40919;43.236;21.590;2023-02-28T05:11:52;75.40;;;38.30;;
55015;SDS011;40919;43.236;21.590;2023-02-28T05:14:18;71.13;;;35.80;;
55015;SDS011;40919;43.236;21.590;2023-02-28T05:16:43;78.13;;;38.28;;
55015;SDS011;40919;43.236;21.590;2023-02-28T05:19:09;76.65;;;37.78;;
55015;SDS011;40919;43.236;21.590;2023-02-28T05:21:37;81.32;;;38.35;;
55015;SDS011;40919;43.236;21.590;2023-02-28T05:24:08;75.82;;;37.42;;
55015;SDS011;40919;43.236;21.590;2023-02-28T05:26:36;73.53;;;37.05;;
55015;SDS011;40919;43.236;21.590;2023-02-28T05:29:04;73.30;;;35.08;;
55015;SDS011;40919;43.236;21.590;2023-02-28T05:31:30;79.32;;;37.53;;
55015;SDS011;40919;43.236;21.590;2023-02-28T05:33:56;85.20;;;41.03;;
55015;SDS011;40919;43.236;21.590;2023-02-28T05:36:22;85.63;;;42.72;;
55015;SDS011;40919;43.236;21.590;2023-02-28T05:38:48;86.15;;;43.70;;
55015;SDS011;40919;43.236;21.590;2023-02-28T05:41:15;88.38;;;43.75;;
55015;SDS011;40919;43.236;21.590;2023-02-28T05:43:41;87.47;;;47.30;;
55015;SDS011;40919;43.236;21.590;2023-02-28T05:46:07;89.18;;;46.92;;
55015;SDS011;40919;43.236;21.590;2023-02-28T05:48:35;103.68;;;63.22;;
55015;SDS011;40919;43.236;21.590;2023-02-28T05:51:02;89.45;;;46.60;;
55015;SDS011;40919;43.236;21.590;2023-02-28T05:53:29;93.75;;;50.22;;
55015;SDS011;40919;43.236;21.590;2023-02-28T05:55:55;96.03;;;53.53;;
55015;SDS011;40919;43.236;21.590;2023-02-28T05:58:20;96.45;;;49.08;;
55015;SDS011;40919;43.236;21.590;2023-02-28T06:00:47;96.45;;;53.75;;
55015;SDS011;40919;43.236;21.590;2023-02-28T06:03:13;126.53;;;71.82;;
55015;SDS011;40919;43.236;21.590;2023-02-28T06:05:38;254.57;;;143.35;;
55015;SDS011;40919;43.236;21.590;2023-02-28T06:08:04;230.40;;;128.88;;
55015;SDS011;40919;43.236;21.590;2023-02-28T06:10:34;134.00;;;73.00;;
55015;SDS011;40919;43.236;21.590;2023-02-28T06:13:00;120.38;;;66.35;;
55015;SDS011;40919;43.236;21.590;2023-02-28T06:15:27;99.50;;;54.97;;
55015;SDS011;40919;43.236;21.590;2023-02-28T06:17:53;90.38;;;48.33;;
55015;SDS011;40919;43.236;21.590;2023-02-28T06:20:21;170.20;;;97.25;;
55015;SDS011;40919;43.236;21.590;2023-02-28T06:22:48;121.15;;;63.22;;
55015;SDS011;40919;43.236;21.590;2023-02-28T06:25:15;99.63;;;51.53;;
55015;SDS011;40919;43.236;21.590;2023-02-28T06:27:41;99.20;;;52.00;;
55015;SDS011;40919;43.236;21.590;2023-02-28T06:30:07;96.75;;;51.53;;
55015;SDS011;40919;43.236;21.590;2023-02-28T06:32:33;105.40;;;55.95;;
55015;SDS011;40919;43.236;21.590;2023-02-28T06:34:59;113.07;;;64.00;;
55015;SDS011;40919;43.236;21.590;2023-02-28T06:37:25;119.55;;;75.95;;
55015;SDS011;40919;43.236;21.590;2023-02-28T06:39:56;98.20;;;54.42;;
55015;SDS011;40919;43.236;21.590;2023-02-28T06:42:23;96.38;;;51.83;;
55015;SDS011;40919;43.236;21.590;2023-02-28T06:44:56;86.43;;;46.63;;
55015;SDS011;40919;43.236;21.590;2023-02-28T06:47:23;97.55;;;50.72;;
55015;SDS011;40919;43.236;21.590;2023-02-28T06:49:49;100.05;;;50.70;;
55015;SDS011;40919;43.236;21.590;2023-02-28T06:52:15;98.75;;;50.15;;
55015;SDS011;40919;43.236;21.590;2023-02-28T06:54:40;91.75;;;50.28;;
55015;SDS011;40919;43.236;21.590;2023-02-28T06:57:06;96.55;;;50.97;;
55015;SDS011;40919;43.236;21.590;2023-02-28T06:59:32;99.97;;;52.55;;
55015;SDS011;40919;43.236;21.590;2023-02-28T07:01:58;106.63;;;54.33;;
55015;SDS011;40919;43.236;21.590;2023-02-28T07:04:24;105.13;;;53.25;;
55015;SDS011;40919;43.236;21.590;2023-02-28T07:06:49;90.60;;;47.85;;
55015;SDS011;40919;43.236;21.590;2023-02-28T07:09:15;96.60;;;48.00;;
55015;SDS011;40919;43.236;21.590;2023-02-28T07:11:41;95.45;;;48.92;;
55015;SDS011;40919;43.236;21.590;2023-02-28T07:14:08;112.72;;;57.55;;
55015;SDS011;40919;43.236;21.590;2023-02-28T07:16:33;105.55;;;53.40;;
55015;SDS011;40919;43.236;21.590;2023-02-28T07:19:00;104.13;;;54.13;;
55015;SDS011;40919;43.236;21.590;2023-02-28T07:21:25;106.68;;;52.60;;
55015;SDS011;40919;43.236;21.590;2023-02-28T07:23:51;98.95;;;50.42;;
55015;SDS011;40919;43.236;21.590;2023-02-28T07:26:17;100.88;;;52.03;;
55015;SDS011;40919;43.236;21.590;2023-02-28T07:28:45;109.15;;;54.97;;
55015;SDS011;40919;43.236;21.590;2023-02-28T07:31:12;130.48;;;65.80;;
55015;SDS011;40919;43.236;21.590;2023-02-28T07:33:39;134.07;;;73.75;;
55015;SDS011;40919;43.236;21.590;2023-02-28T07:36:06;107.68;;;58.13;;
55015;SDS011;40919;43.236;21.590;2023-02-28T07:38:34;102.90;;;55.50;;
55015;SDS011;40919;43.236;21.590;2023-02-28T07:41:01;113.45;;;58.25;;
55015;SDS011;40919;43.236;21.590;2023-02-28T07:43:30;139.75;;;82.80;;
55015;SDS011;40919;43.236;21.590;2023-02-28T07:46:01;102.13;;;56.08;;
55015;SDS011;40919;43.236;21.590;2023-02-28T07:48:28;110.63;;;62.03;;
55015;SDS011;40919;43.236;21.590;2023-02-28T07:50:57;102.60;;;54.72;;
55015;SDS011;40919;43.236;21.590;2023-02-28T07:53:24;104.97;;;52.30;;
55015;SDS011;40919;43.236;21.590;2023-02-28T07:55:50;113.65;;;57.95;;
55015;SDS011;40919;43.236;21.590;2023-02-28T07:58:16;120.20;;;61.88;;
55015;SDS011;40919;43.236;21.590;2023-02-28T08:00:41;120.30;;;61.13;;
55015;SDS011;40919;43.236;21.590;2023-02-28T08:03:09;128.15;;;60.22;;
55015;SDS011;40919;43.236;21.590;2023-02-28T08:05:40;107.53;;;55.70;;
55015;SDS011;40919;43.236;21.590;2023-02-28T08:08:07;123.10;;;58.00;;
55015;SDS011;40919;43.236;21.590;2023-02-28T08:10:33;111.72;;;54.08;;
55015;SDS011;40919;43.236;21.590;2023-02-28T08:12:59;105.65;;;51.28;;
55015;SDS011;40919;43.236;21.590;2023-02-28T08:15:25;120.20;;;54.15;;
55015;SDS011;40919;43.236;21.590;2023-02-28T08:17:51;131.07;;;63.22;;
55015;SDS011;40919;43.236;21.590;2023-02-28T08:20:18;126.45;;;59.78;;
55015;SDS011;40919;43.236;21.590;2023-02-28T08:22:44;196.90;;;103.65;;
55015;SDS011;40919;43.236;21.590;2023-02-28T08:25:10;131.68;;;69.13;;
55015;SDS011;40919;43.236;21.590;2023-02-28T08:27:36;125.30;;;60.75;;
55015;SDS011;40919;43.236;21.590;2023-02-28T08:30:03;109.57;;;55.97;;
55015;SDS011;40919;43.236;21.590;2023-02-28T08:32:29;109.65;;;53.17;;
55015;SDS011;40919;43.236;21.590;2023-02-28T08:34:54;123.07;;;57.80;;
55015;SDS011;40919;43.236;21.590;2023-02-28T08:37:20;152.60;;;79.45;;
55015;SDS011;40919;43.236;21.590;2023-02-28T08:39:46;165.30;;;88.32;;
55015;SDS011;40919;43.236;21.590;2023-02-28T08:42:12;157.50;;;81.28;;
55015;SDS011;40919;43.236;21.590;2023-02-28T08:44:37;167.07;;;85.80;;
55015;SDS011;40919;43.236;21.590;2023-02-28T08:47:03;162.98;;;78.82;;
55015;SDS011;40919;43.236;21.590;2023-02-28T08:49:29;137.93;;;67.88;;
55015;SDS011;40919;43.236;21.590;2023-02-28T08:51:54;152.63;;;72.88;;
55015;SDS011;40919;43.236;21.590;2023-02-28T08:54:22;140.10;;;70.57;;
55015;SDS011;40919;43.236;21.590;2023-02-28T08:56:48;129.02;;;65.07;;
55015;SDS011;40919;43.236;21.590;2023-02-28T08:59:14;135.60;;;68.88;;
55015;SDS011;40919;43.236;21.590;2023-02-28T09:01:40;142.27;;;67.05;;
55015;SDS011;40919;43.236;21.590;2023-02-28T09:04:06;126.60;;;67.18;;
55015;SDS011;40919;43.236;21.590;2023-02-28T09:06:34;142.13;;;74.60;;
55015;SDS011;40919;43.236;21.590;2023-02-28T09:09:00;116.70;;;60.75;;
55015;SDS011;40919;43.236;21.590;2023-02-28T09:11:26;137.68;;;66.00;;
55015;SDS011;40919;43.236;21.590;2023-02-28T09:13:53;145.02;;;73.80;;
55015;SDS011;40919;43.236;21.590;2023-02-28T09:16:20;132.95;;;63.95;;
55015;SDS011;40919;43.236;21.590;2023-02-28T09:18:46;124.25;;;60.90;;
55015;SDS011;40919;43.236;21.590;2023-02-28T09:21:13;136.65;;;67.55;;
55015;SDS011;40919;43.236;21.590;2023-02-28T09:23:41;147.15;;;70.43;;
55015;SDS011;40919;43.236;21.590;2023-02-28T09:26:12;191.00;;;100.57;;
55015;SDS011;40919;43.236;21.590;2023-02-28T09:28:42;168.13;;;86.78;;
55015;SDS011;40919;43.236;21.590;2023-02-28T09:31:13;155.73;;;82.78;;
55015;SDS011;40919;43.236;21.590;2023-02-28T09:36:07;145.32;;;80.55;;
55015;SDS011;40919;43.236;21.590;2023-02-28T09:38:33;134.63;;;66.05;;
55015;SDS011;40919;43.236;21.590;2023-02-28T09:41:03;136.05;;;75.18;;
55015;SDS011;40919;43.236;21.590;2023-02-28T09:43:37;131.88;;;67.60;;
55015;SDS011;40919;43.236;21.590;2023-02-28T09:46:14;143.07;;;72.77;;
55015;SDS011;40919;43.236;21.590;2023-02-28T09:49:05;150.02;;;72.70;;
55015;SDS011;40919;43.236;21.590;2023-02-28T09:54:17;145.30;;;76.90;;
55015;SDS011;40919;43.236;21.590;2023-02-28T09:57:32;142.00;;;70.18;;
55015;SDS011;40919;43.236;21.590;2023-02-28T09:59:57;134.15;;;68.05;;
55015;SDS011;40919;43.236;21.590;2023-02-28T10:05:11;165.93;;;87.15;;
55015;SDS011;40919;43.236;21.590;2023-02-28T10:08:01;154.20;;;85.32;;
55015;SDS011;40919;43.236;21.590;2023-02-28T10:10:40;148.05;;;79.00;;
55015;SDS011;40919;43.236;21.590;2023-02-28T10:13:13;137.80;;;74.97;;
55015;SDS011;40919;43.236;21.590;2023-02-28T10:18:27;127.45;;;64.18;;
55015;SDS011;40919;43.236;21.590;2023-02-28T10:21:21;122.32;;;65.75;;
55015;SDS011;40919;43.236;21.590;2023-02-28T10:23:53;140.55;;;77.50;;
55015;SDS011;40919;43.236;21.590;2023-02-28T10:26:28;120.57;;;63.78;;
55015;SDS011;40919;43.236;21.590;2023-02-28T10:28:56;153.35;;;76.70;;
55015;SDS011;40919;43.236;21.590;2023-02-28T10:31:22;146.82;;;76.57;;
55015;SDS011;40919;43.236;21.590;2023-02-28T10:33:48;127.00;;;70.95;;
55015;SDS011;40919;43.236;21.590;2023-02-28T10:36:15;140.48;;;73.93;;
55015;SDS011;40919;43.236;21.590;2023-02-28T10:38:44;115.82;;;63.25;;
55015;SDS011;40919;43.236;21.590;2023-02-28T10:41:12;133.30;;;67.53;;
55015;SDS011;40919;43.236;21.590;2023-02-28T10:43:41;144.95;;;72.53;;
55015;SDS011;40919;43.236;21.590;2023-02-28T10:48:38;122.07;;;63.67;;
55015;SDS011;40919;43.236;21.590;2023-02-28T10:51:22;110.85;;;57.58;;
55015;SDS011;40919;43.236;21.590;2023-02-28T10:56:16;119.85;;;60.40;;
55015;SDS011;40919;43.236;21.590;2023-02-28T10:58:51;137.10;;;61.75;;
55015;SDS011;40919;43.236;21.590;2023-02-28T11:01:19;119.50;;;60.13;;
55015;SDS011;40919;43.236;21.590;2023-02-28T11:03:50;116.47;;;59.70;;
55015;SDS011;40919;43.236;21.590;2023-02-28T11:06:21;111.43;;;57.03;;
55015;SDS011;40919;43.236;21.590;2023-02-28T11:08:51;117.88;;;59.60;;
55015;SDS011;40919;43.236;21.590;2023-02-28T11:11:19;107.65;;;61.05;;
55015;SDS011;40919;43.236;21.590;2023-02-28T11:13:47;120.65;;;65.65;;
55015;SDS011;40919;43.236;21.590;2023-02-28T11:16:16;131.50;;;69.93;;
55015;SDS011;40919;43.236;21.590;2023-02-28T11:18:54;113.90;;;60.92;;
55015;SDS011;40919;43.236;21.590;2023-02-28T11:21:30;125.43;;;63.03;;
55015;SDS011;40919;43.236;21.590;2023-02-28T11:26:53;117.93;;;62.42;;
55015;SDS011;40919;43.236;21.590;2023-02-28T11:29:30;108.55;;;57.63;;
55015;SDS011;40919;43.236;21.590;2023-02-28T11:34:37;117.28;;;62.78;;
55015;SDS011;40919;43.236;21.590;2023-02-28T11:37:05;108.32;;;58.47;;
55015;SDS011;40919;43.236;21.590;2023-02-28T11:39:36;104.35;;;54.20;;
55015;SDS011;40919;43.236;21.590;2023-02-28T11:51:27;122.03;;;65.05;;
55015;SDS011;40919;43.236;21.590;2023-02-28T12:02:28;124.25;;;68.57;;
55015;SDS011;40919;43.236;21.590;2023-02-28T12:07:45;143.75;;;80.90;;
55015;SDS011;40919;43.236;21.590;2023-02-28T12:10:23;131.00;;;75.55;;
55015;SDS011;40919;43.236;21.590;2023-02-28T12:18:52;103.03;;;57.22;;
55015;SDS011;40919;43.236;21.590;2023-02-28T12:24:00;109.72;;;60.95;;
55015;SDS011;40919;43.236;21.590;2023-02-28T12:26:48;101.00;;;53.42;;
55015;SDS011;40919;43.236;21.590;2023-02-28T12:29:17;121.00;;;74.65;;
55015;SDS011;40919;43.236;21.590;2023-02-28T12:31:56;110.40;;;60.28;;
55015;SDS011;40919;43.236;21.590;2023-02-28T12:34:28;102.13;;;52.03;;
55015;SDS011;40919;43.236;21.590;2023-02-28T12:36:58;88.65;;;48.85;;
55015;SDS011;40919;43.236;21.590;2023-02-28T12:39:41;83.50;;;45.20;;
55015;SDS011;40919;43.236;21.590;2023-02-28T12:42:13;87.72;;;47.35;;
55015;SDS011;40919;43.236;21.590;2023-02-28T12:44:52;104.80;;;54.60;;
55015;SDS011;40919;43.236;21.590;2023-02-28T12:49:50;93.00;;;50.50;;
55015;SDS011;40919;43.236;21.590;2023-02-28T12:55:08;87.78;;;52.30;;
55015;SDS011;40919;43.236;21.590;2023-02-28T12:57:46;92.30;;;56.90;;
55015;SDS011;40919;43.236;21.590;2023-02-28T13:00:22;90.00;;;50.42;;
55015;SDS011;40919;43.236;21.590;2023-02-28T13:02:53;138.10;;;83.13;;
55015;SDS011;40919;43.236;21.590;2023-02-28T13:08:20;91.25;;;57.00;;
55015;SDS011;40919;43.236;21.590;2023-02-28T13:10:49;91.35;;;54.72;;
55015;SDS011;40919;43.236;21.590;2023-02-28T13:13:22;95.45;;;56.75;;
55015;SDS011;40919;43.236;21.590;2023-02-28T13:16:01;103.47;;;62.83;;
55015;SDS011;40919;43.236;21.590;2023-02-28T13:21:04;107.45;;;60.65;;
55015;SDS011;40919;43.236;21.590;2023-02-28T13:27:10;72.00;;;40.55;;
55015;SDS011;40919;43.236;21.590;2023-02-28T13:34:46;69.93;;;41.90;;
55015;SDS011;40919;43.236;21.590;2023-02-28T13:39:54;62.13;;;35.45;;
55015;SDS011;40919;43.236;21.590;2023-02-28T13:42:50;179.27;;;79.13;;
55015;SDS011;40919;43.236;21.590;2023-02-28T13:45:28;99.70;;;57.08;;
55015;SDS011;40919;43.236;21.590;2023-02-28T13:48:04;78.40;;;44.85;;
55015;SDS011;40919;43.236;21.590;2023-02-28T13:50:41;81.38;;;45.72;;
55015;SDS011;40919;43.236;21.590;2023-02-28T13:58:35;87.85;;;54.03;;
55015;SDS011;40919;43.236;21.590;2023-02-28T14:06:31;77.45;;;44.58;;
55015;SDS011;40919;43.236;21.590;2023-02-28T14:09:02;67.03;;;40.67;;
55015;SDS011;40919;43.236;21.590;2023-02-28T14:11:44;73.53;;;39.83;;
55015;SDS011;40919;43.236;21.590;2023-02-28T14:17:02;67.32;;;36.05;;
55015;SDS011;40919;43.236;21.590;2023-02-28T14:19:29;64.35;;;36.72;;
55015;SDS011;40919;43.236;21.590;2023-02-28T14:32:33;91.55;;;47.20;;
55015;SDS011;40919;43.236;21.590;2023-02-28T14:37:50;85.68;;;48.42;;
55015;SDS011;40919;43.236;21.590;2023-02-28T14:43:00;87.07;;;50.00;;
55015;SDS011;40919;43.236;21.590;2023-02-28T14:45:32;86.35;;;49.30;;
55015;SDS011;40919;43.236;21.590;2023-02-28T14:48:01;72.75;;;40.30;;
55015;SDS011;40919;43.236;21.590;2023-02-28T14:50:30;77.68;;;40.38;;
55015;SDS011;40919;43.236;21.590;2023-02-28T14:53:01;80.03;;;43.72;;
55015;SDS011;40919;43.236;21.590;2023-02-28T14:55:29;76.78;;;43.15;;
55015;SDS011;40919;43.236;21.590;2023-02-28T14:57:58;74.28;;;43.75;;
55015;SDS011;40919;43.236;21.590;2023-02-28T15:00:33;81.55;;;45.40;;
55015;SDS011;40919;43.236;21.590;2023-02-28T15:03:17;62.22;;;34.22;;
55015;SDS011;40919;43.236;21.590;2023-02-28T15:05:52;51.83;;;30.35;;
55015;SDS011;40919;43.236;21.590;2023-02-28T15:08:20;58.47;;;34.30;;
55015;SDS011;40919;43.236;21.590;2023-02-28T15:10:54;63.65;;;34.30;;
55015;SDS011;40919;43.236;21.590;2023-02-28T15:13:47;70.30;;;39.03;;
55015;SDS011;40919;43.236;21.590;2023-02-28T15:18:46;68.65;;;36.20;;
55015;SDS011;40919;43.236;21.590;2023-02-28T15:21:15;63.83;;;33.47;;
55015;SDS011;40919;43.236;21.590;2023-02-28T15:23:46;58.13;;;32.23;;
55015;SDS011;40919;43.236;21.590;2023-02-28T15:26:20;70.57;;;40.45;;
55015;SDS011;40919;43.236;21.590;2023-02-28T15:28:51;74.57;;;41.17;;
55015;SDS011;40919;43.236;21.590;2023-02-28T15:31:27;94.80;;;51.38;;
55015;SDS011;40919;43.236;21.590;2023-02-28T15:33:58;88.40;;;45.85;;
55015;SDS011;40919;43.236;21.590;2023-02-28T15:36:29;68.25;;;41.67;;
55015;SDS011;40919;43.236;21.590;2023-02-28T15:38:58;74.85;;;48.25;;
55015;SDS011;40919;43.236;21.590;2023-02-28T15:41:26;66.00;;;36.03;;
55015;SDS011;40919;43.236;21.590;2023-02-28T15:44:14;74.53;;;40.60;;
55015;SDS011;40919;43.236;21.590;2023-02-28T15:46:40;77.80;;;49.53;;
55015;SDS011;40919;43.236;21.590;2023-02-28T15:49:19;68.45;;;40.95;;
55015;SDS011;40919;43.236;21.590;2023-02-28T15:51:45;67.75;;;41.97;;
55015;SDS011;40919;43.236;21.590;2023-02-28T15:54:12;77.60;;;46.13;;
55015;SDS011;40919;43.236;21.590;2023-02-28T15:56:43;63.65;;;41.38;;
55015;SDS011;40919;43.236;21.590;2023-02-28T15:59:29;74.13;;;44.90;;
55015;SDS011;40919;43.236;21.590;2023-02-28T16:02:04;84.07;;;48.10;;
55015;SDS011;40919;43.236;21.590;2023-02-28T16:04:37;77.60;;;45.47;;
55015;SDS011;40919;43.236;21.590;2023-02-28T16:07:19;63.95;;;41.38;;
55015;SDS011;40919;43.236;21.590;2023-02-28T16:09:45;69.70;;;45.63;;
55015;SDS011;40919;43.236;21.590;2023-02-28T16:12:13;69.00;;;39.67;;
55015;SDS011;40919;43.236;21.590;2023-02-28T16:14:39;64.43;;;36.17;;
55015;SDS011;40919;43.236;21.590;2023-02-28T16:17:21;67.63;;;39.92;;
55015;SDS011;40919;43.236;21.590;2023-02-28T16:22:14;58.85;;;31.63;;
55015;SDS011;40919;43.236;21.590;2023-02-28T16:24:40;69.18;;;35.47;;
55015;SDS011;40919;43.236;21.590;2023-02-28T16:27:06;69.25;;;37.50;;
55015;SDS011;40919;43.236;21.590;2023-02-28T16:29:35;66.68;;;39.40;;
55015;SDS011;40919;43.236;21.590;2023-02-28T16:32:04;50.95;;;30.30;;
55015;SDS011;40919;43.236;21.590;2023-02-28T16:34:30;53.63;;;28.40;;
55015;SDS011;40919;43.236;21.590;2023-02-28T16:36:56;55.30;;;30.90;;